Time;durP1;ratioP1;P1;durP2;ratioP2;P2;SDS_P1;SDS_P2;PMS_P1;PMS_P2;Temp;Humidity;BMP_temperature;BMP_pressure;BME280_temperature;BME280_humidity;BME280_pressure;Samples;Min_cycle;Max_cycle;Signal;HPM_P1;HPM_P2
2021/08/30 00:00:29;;;;;;;12.75;8.78;;;;;;;;;;362897;145;857467;-61
2021/08/30 00:01:30;;;;;;;11.31;9.21;;;;;;;;;;363570;144;857460;-61
2021/08/30 00:02:32;;;;;;;12.91;9.41;;;;;;;;;;363304;144;860443;-61
2021/08/30 00:03:33;;;;;;;13.65;8.89;;;;;;;;;;364459;145;856630;-62
2021/08/30 00:04:35;;;;;;;14.18;8.58;;;;;;;;;;363524;144;857400;-61
2021/08/30 00:05:36;;;;;;;12.81;8.82;;;;;;;;;;367949;144;857204;-61
2021/08/30 00:06:41;;;;;;;12.37;8.21;;;;;;;;;;356501;148;857711;-61
2021/08/30 00:07:42;;;;;;;12.76;8.66;;;;;;;;;;363812;144;858090;-61
2021/08/30 00:08:44;;;;;;;12.31;8.26;;;;;;;;;;364420;144;859301;-62
2021/08/30 00:09:46;;;;;;;10.96;8.47;;;;;;;;;;361813;144;857085;-61
2021/08/30 00:10:48;;;;;;;10.15;8.47;;;;;;;;;;361746;144;858899;-61
2021/08/30 00:11:49;;;;;;;11.46;8.51;;;;;;;;;;364246;144;858962;-61
2021/08/30 00:12:51;;;;;;;12.03;8.81;;;;;;;;;;361659;144;858885;-61
2021/08/30 00:13:52;;;;;;;13.40;8.99;;;;;;;;;;363649;145;859007;-61
2021/08/30 00:14:55;;;;;;;10.96;8.87;;;;;;;;;;363780;144;859064;-61
2021/08/30 00:15:57;;;;;;;14.47;9.14;;;;;;;;;;365253;144;858407;-61
2021/08/30 00:16:59;;;;;;;11.80;8.14;;;;;;;;;;366301;144;858875;-61
2021/08/30 00:18:01;;;;;;;10.10;8.84;;;;;;;;;;363809;144;857720;-61
2021/08/30 00:19:03;;;;;;;11.99;8.58;;;;;;;;;;365530;144;865044;-61
2021/08/30 00:20:06;;;;;;;11.68;8.19;;;;;;;;;;364552;144;857210;-64
2021/08/30 00:21:08;;;;;;;12.27;8.51;;;;;;;;;;363117;144;857251;-61
2021/08/30 00:22:09;;;;;;;14.54;8.96;;;;;;;;;;362734;144;866360;-61
2021/08/30 00:23:11;;;;;;;12.19;8.45;;;;;;;;;;363230;144;857261;-61
2021/08/30 00:24:12;;;;;;;12.81;8.89;;;;;;;;;;363659;144;857251;-61
2021/08/30 00:25:14;;;;;;;11.78;9.09;;;;;;;;;;363602;144;857379;-61
2021/08/30 00:26:16;;;;;;;13.91;8.90;;;;;;;;;;366000;144;857184;-61
2021/08/30 00:27:18;;;;;;;12.71;9.42;;;;;;;;;;359882;147;857290;-61
2021/08/30 00:28:19;;;;;;;11.80;8.62;;;;;;;;;;361321;144;857258;-61
2021/08/30 00:29:25;;;;;;;11.38;8.70;;;;;;;;;;362959;144;857848;-61
2021/08/30 00:30:27;;;;;;;12.56;9.18;;;;;;;;;;366237;145;857340;-61
2021/08/30 00:31:28;;;;;;;13.51;9.14;;;;;;;;;;368478;144;859131;-61
2021/08/30 00:32:30;;;;;;;12.59;9.34;;;;;;;;;;362061;144;857938;-61
2021/08/30 00:33:32;;;;;;;10.99;8.94;;;;;;;;;;364496;144;857903;-61
2021/08/30 00:34:33;;;;;;;13.41;8.55;;;;;;;;;;365753;144;856836;-61
2021/08/30 00:35:35;;;;;;;15.33;9.10;;;;;;;;;;362179;144;866045;-61
2021/08/30 00:36:38;;;;;;;11.95;9.07;;;;;;;;;;364867;143;864361;-61
2021/08/30 00:37:40;;;;;;;11.36;8.67;;;;;;;;;;359606;146;857168;-61
2021/08/30 00:38:41;;;;;;;10.15;8.03;;;;;;;;;;357955;147;858757;-61
2021/08/30 00:39:44;;;;;;;11.12;8.63;;;;;;;;;;357022;148;857920;-60
2021/08/30 00:40:46;;;;;;;13.15;8.47;;;;;;;;;;356535;148;857278;-61
2021/08/30 00:41:51;;;;;;;10.57;8.56;;;;;;;;;;357138;149;857633;-61
2021/08/30 00:42:53;;;;;;;13.20;8.62;;;;;;;;;;357084;148;857254;-61
2021/08/30 00:43:55;;;;;;;11.54;8.55;;;;;;;;;;357220;149;858542;-62
2021/08/30 00:44:57;;;;;;;11.57;8.78;;;;;;;;;;357353;148;864985;-61
2021/08/30 00:45:59;;;;;;;11.96;8.39;;;;;;;;;;356971;148;857304;-61
2021/08/30 00:47:01;;;;;;;13.37;8.89;;;;;;;;;;358423;148;857251;-61
2021/08/30 00:48:03;;;;;;;13.67;8.80;;;;;;;;;;356314;150;864866;-62
2021/08/30 00:49:05;;;;;;;12.51;8.75;;;;;;;;;;357464;148;865769;-62
2021/08/30 00:50:08;;;;;;;16.49;8.96;;;;;;;;;;357645;148;858691;-61
2021/08/30 00:51:10;;;;;;;11.70;8.51;;;;;;;;;;357478;148;857372;-61
2021/08/30 00:52:11;;;;;;;11.66;8.51;;;;;;;;;;356363;150;858820;-61
2021/08/30 00:53:13;;;;;;;12.84;8.91;;;;;;;;;;357121;148;857275;-61
2021/08/30 00:54:15;;;;;;;11.76;8.50;;;;;;;;;;355367;148;857132;-61
2021/08/30 00:55:16;;;;;;;11.49;9.01;;;;;;;;;;352509;150;857124;-61
2021/08/30 00:56:18;;;;;;;14.65;9.61;;;;;;;;;;357587;148;857224;-61
2021/08/30 00:57:19;;;;;;;11.89;8.43;;;;;;;;;;355527;148;865016;-61
2021/08/30 00:58:21;;;;;;;11.51;8.79;;;;;;;;;;354354;150;857348;-61
2021/08/30 00:59:22;;;;;;;12.39;8.66;;;;;;;;;;357369;148;859209;-61
2021/08/30 01:00:24;;;;;;;14.57;9.23;;;;;;;;;;356492;148;859197;-61
2021/08/30 01:01:26;;;;;;;13.30;8.86;;;;;;;;;;357224;148;857507;-61
2021/08/30 01:02:28;;;;;;;12.52;9.11;;;;;;;;;;349266;151;866529;-62
2021/08/30 01:03:29;;;;;;;12.84;9.01;;;;;;;;;;348318;152;857380;-62
2021/08/30 01:04:31;;;;;;;14.80;9.34;;;;;;;;;;349689;151;857401;-61
2021/08/30 01:05:32;;;;;;;13.58;9.58;;;;;;;;;;346911;153;857342;-62
2021/08/30 01:06:48;;;;;;;12.73;9.85;;;;;;;;;;348916;152;857396;-61
2021/08/30 01:07:58;;;;;;;14.45;9.42;;;;;;;;;;347697;151;859309;-61
2021/08/30 01:09:09;;;;;;;12.36;9.33;;;;;;;;;;346573;154;858593;-61
2021/08/30 01:10:12;;;;;;;12.68;8.91;;;;;;;;;;347717;154;857186;-61
2021/08/30 01:11:15;;;;;;;12.03;8.74;;;;;;;;;;350155;151;858701;-62
2021/08/30 01:12:24;;;;;;;14.54;9.61;;;;;;;;;;349178;151;857155;-62
2021/08/30 01:13:34;;;;;;;13.52;9.56;;;;;;;;;;347722;151;859133;-62
2021/08/30 01:14:37;;;;;;;13.28;8.87;;;;;;;;;;348574;152;857016;-61
2021/08/30 01:15:44;;;;;;;17.64;9.59;;;;;;;;;;339492;158;858866;-64
2021/08/30 01:16:45;;;;;;;13.33;9.16;;;;;;;;;;350434;151;857714;-62
2021/08/30 01:17:47;;;;;;;11.50;8.76;;;;;;;;;;349222;151;857294;-62
2021/08/30 01:18:49;;;;;;;13.66;9.40;;;;;;;;;;349935;151;864990;-61
2021/08/30 01:19:55;;;;;;;12.02;8.91;;;;;;;;;;349471;151;857276;-61
2021/08/30 01:21:03;;;;;;;12.44;9.43;;;;;;;;;;344003;154;857912;-62
2021/08/30 01:22:05;;;;;;;12.44;8.96;;;;;;;;;;342420;154;857293;-62
2021/08/30 01:23:07;;;;;;;12.81;9.56;;;;;;;;;;341400;155;858981;-61
2021/08/30 01:24:10;;;;;;;14.09;9.84;;;;;;;;;;343497;154;859715;-61
2021/08/30 01:25:12;;;;;;;17.04;9.16;;;;;;;;;;344892;154;857418;-62
2021/08/30 01:26:15;;;;;;;12.24;8.69;;;;;;;;;;341736;156;857288;-61
2021/08/30 01:27:16;;;;;;;14.21;9.27;;;;;;;;;;344335;154;857152;-61
2021/08/30 01:28:19;;;;;;;11.54;9.24;;;;;;;;;;343518;154;859051;-62
2021/08/30 01:29:32;;;;;;;12.73;9.11;;;;;;;;;;344276;154;857413;-61
2021/08/30 01:30:36;;;;;;;16.50;9.35;;;;;;;;;;343792;155;859233;-61
2021/08/30 01:31:46;;;;;;;13.33;9.14;;;;;;;;;;343464;153;857198;-61
2021/08/30 01:32:48;;;;;;;12.01;9.78;;;;;;;;;;344212;153;860211;-61
2021/08/30 01:33:49;;;;;;;13.63;9.72;;;;;;;;;;349658;153;859026;-62
2021/08/30 01:34:51;;;;;;;13.36;9.47;;;;;;;;;;349731;151;857364;-61
2021/08/30 01:35:52;;;;;;;12.06;9.24;;;;;;;;;;349188;153;864992;-61
2021/08/30 01:36:56;;;;;;;11.34;8.76;;;;;;;;;;349470;154;857281;-61
2021/08/30 01:38:00;;;;;;;12.89;9.04;;;;;;;;;;349409;152;858672;-62
2021/08/30 01:39:01;;;;;;;12.22;9.16;;;;;;;;;;349150;151;859440;-61
2021/08/30 01:40:03;;;;;;;13.78;9.95;;;;;;;;;;357438;150;857186;-61
2021/08/30 01:41:05;;;;;;;11.65;8.69;;;;;;;;;;353395;150;865483;-62
2021/08/30 01:42:06;;;;;;;11.18;8.66;;;;;;;;;;357090;148;859779;-62
2021/08/30 01:43:08;;;;;;;12.66;8.79;;;;;;;;;;358016;149;865021;-61
2021/08/30 01:44:10;;;;;;;13.99;9.14;;;;;;;;;;356610;148;857348;-61
2021/08/30 01:45:12;;;;;;;10.52;8.78;;;;;;;;;;355877;148;865421;-61
2021/08/30 01:46:14;;;;;;;13.53;9.36;;;;;;;;;;357340;149;864897;-61
2021/08/30 01:47:16;;;;;;;13.10;8.61;;;;;;;;;;356775;150;857126;-61
2021/08/30 01:48:18;;;;;;;13.20;8.74;;;;;;;;;;356077;148;865004;-61
2021/08/30 01:49:20;;;;;;;11.46;8.80;;;;;;;;;;358170;148;858851;-61
2021/08/30 01:50:23;;;;;;;15.16;9.46;;;;;;;;;;357427;149;867305;-61
2021/08/30 01:51:26;;;;;;;13.24;9.29;;;;;;;;;;353914;148;857366;-62
2021/08/30 01:52:33;;;;;;;12.63;9.17;;;;;;;23.04;95.44;112913.89;358649;148;866764;-61
2021/08/30 01:53:34;;;;;;;10.82;6.70;;;;;;;;;;356426;149;859063;-62
2021/08/30 01:54:36;;;;;;;10.17;6.48;;;;;;;;;;355328;149;857292;-62
2021/08/30 01:55:44;;;;;;;11.73;7.35;;;;;;;;;;353460;150;859308;-61
2021/08/30 01:56:48;;;;;;;11.54;7.70;;;;;;;;;;356597;148;858824;-61
2021/08/30 02:00:42;;;;;;;12.89;7.40;;;;;;;;;;356378;149;858670;-62
2021/08/30 02:01:40;;;;;;;11.07;7.84;;;;;;;;;;353459;150;857722;-61
2021/08/30 02:02:41;;;;;;;14.73;8.74;;;;;;;;;;357437;149;867107;-61
2021/08/30 02:03:44;;;;;;;9.35;8.06;;;;;;;;;;357728;148;859646;-61
2021/08/30 02:04:45;;;;;;;10.92;8.69;;;;;;;;;;357068;149;859232;-61
2021/08/30 02:05:54;;;;;;;11.85;8.46;;;;;;;;;;355300;148;859066;-61
2021/08/30 02:06:56;;;;;;;11.92;8.26;;;;;;;;;;355765;148;859466;-61
2021/08/30 02:07:58;;;;;;;11.89;8.77;;;;;;;;;;354642;148;857213;-61
2021/08/30 02:08:59;;;;;;;11.62;7.90;;;;;;;;;;350126;152;857777;-62
2021/08/30 02:10:01;;;;;;;14.84;8.56;;;;;;;;;;353007;149;857247;-62
2021/08/30 02:11:04;;;;;;;16.50;8.73;;;;;;;;;;356309;148;864964;-61
2021/08/30 02:12:06;;;;;;;10.38;8.22;;;;;;;;;;357336;148;857175;-62
2021/08/30 02:20:39;;;;;;;10.13;7.22;;;;;;;19.53;77.56;99155.14;372723;142;884318;-61
2021/08/30 02:21:44;;;;;;;7.50;5.53;;;;;;;19.45;77.31;99156.54;365222;145;857252;-61
2021/08/30 02:22:46;;;;;;;11.21;5.19;;;;;;;19.45;77.29;99154.75;363297;146;857271;-62
2021/08/30 02:23:59;;;;;;;8.17;4.71;;;;;;;19.47;77.46;99163.37;365033;147;857550;-62
2021/08/30 02:25:03;;;;;;;11.08;4.47;;;;;;;19.51;77.38;99170.14;364124;146;864745;-61
2021/08/30 02:26:11;;;;;;;7.25;4.65;;;;;;;19.60;77.14;99165.30;364574;145;857139;-62
2021/08/30 02:27:30;;;;;;;6.82;4.37;;;;;;;19.68;76.93;99160.47;365517;146;857178;-61
2021/08/30 02:28:32;;;;;;;8.48;4.48;;;;;;;19.80;76.40;99162.37;362360;146;857399;-61
2021/08/30 02:30:03;;;;;;;9.77;5.01;;;;;;;19.94;75.81;99156.31;364936;144;857411;-61
2021/08/30 02:31:05;;;;;;;10.73;4.27;;;;;;;20.05;75.41;99155.69;364815;145;864813;-62
2021/08/30 02:32:07;;;;;;;7.49;4.47;;;;;;;20.21;74.83;99160.02;364719;146;858738;-61
2021/08/30 02:33:10;;;;;;;7.97;4.47;;;;;;;20.29;74.38;99155.99;364212;145;864699;-61
2021/08/30 02:34:12;;;;;;;6.86;3.94;;;;;;;20.37;73.82;99158.14;364390;147;858891;-60
2021/08/30 02:35:16;;;;;;;6.59;4.47;;;;;;;20.48;73.75;99165.38;364498;146;865574;-61
2021/08/30 02:36:19;;;;;;;9.26;4.36;;;;;;;20.57;73.18;99161.31;364199;145;857203;-61
2021/08/30 02:37:24;;;;;;;6.87;4.59;;;;;;;20.65;72.48;99155.59;364875;146;857265;-61
2021/08/30 02:38:26;;;;;;;7.49;3.93;;;;;;;20.64;71.99;99156.53;361625;146;858985;-61
2021/08/30 02:39:27;;;;;;;8.97;4.14;;;;;;;20.67;72.15;99153.70;364638;145;857516;-61
2021/08/30 02:40:29;;;;;;;9.40;4.21;;;;;;;20.68;71.90;99148.37;361287;144;864885;-61
2021/08/30 02:41:31;;;;;;;7.97;4.33;;;;;;;20.70;71.52;99153.52;361594;147;859604;-61
2021/08/30 02:42:33;;;;;;;7.46;4.40;;;;;;;20.72;71.79;99147.23;364480;145;863925;-61
2021/08/30 02:43:35;;;;;;;7.37;4.41;;;;;;;20.71;71.48;99147.31;363119;144;865085;-61
2021/08/30 02:44:37;;;;;;;6.02;3.71;;;;;;;20.66;71.33;99144.95;367305;145;857309;-61
2021/08/30 02:45:38;;;;;;;7.69;4.49;;;;;;;;;;364912;145;865663;-61
2021/08/30 02:46:41;;;;;;;11.96;4.72;;;;;;;;;;363088;145;864747;-61
2021/08/30 02:47:43;;;;;;;9.11;4.84;;;;;;;;;;362948;145;857346;-61
2021/08/30 02:48:44;;;;;;;8.16;4.82;;;;;;;;;;362024;145;857331;-62
2021/08/30 02:49:46;;;;;;;10.11;5.32;;;;;;;;;;364188;146;857323;-61
2021/08/30 02:50:48;;;;;;;8.19;5.39;;;;;;;;;;364536;145;857326;-61
2021/08/30 02:51:50;;;;;;;8.61;5.40;;;;;;;;;;363375;145;857193;-61
2021/08/30 02:52:51;;;;;;;10.51;6.26;;;;;;;;;;364570;146;857333;-61
2021/08/30 02:53:53;;;;;;;10.57;6.12;;;;;;;;;;364497;145;858278;-61
2021/08/30 02:54:54;;;;;;;10.89;6.05;;;;;;;;;;364487;144;858615;-61
2021/08/30 02:55:56;;;;;;;14.66;6.41;;;;;;;;;;364168;145;858677;-61
2021/08/30 02:56:59;;;;;;;8.85;6.48;;;;;;;;;;362840;145;859830;-61
2021/08/30 02:58:01;;;;;;;10.26;6.83;;;;;;;;;;362835;144;859781;-60
2021/08/30 02:59:02;;;;;;;13.47;7.10;;;;;;;;;;359986;145;859927;-61
2021/08/30 03:00:05;;;;;;;11.91;6.94;;;;;;;;;;363962;145;864991;-61
2021/08/30 03:01:06;;;;;;;8.41;6.98;;;;;;;;;;364641;145;864973;-61
2021/08/30 03:02:08;;;;;;;12.59;7.07;;;;;;;;;;364083;146;857232;-61
2021/08/30 03:03:09;;;;;;;10.13;7.12;;;;;;;;;;365864;145;866682;-61
2021/08/30 03:04:12;;;;;;;11.60;7.26;;;;;;;;;;362837;145;857247;-61
2021/08/30 03:05:13;;;;;;;9.83;7.41;;;;;;;;;;364485;144;859032;-61
2021/08/30 03:06:16;;;;;;;11.45;8.32;;;;;;;;;;365136;145;857272;-61
2021/08/30 03:07:18;;;;;;;10.84;7.65;;;;;;;;;;364069;145;857848;-61
2021/08/30 03:08:19;;;;;;;10.82;7.49;;;;;;;;;;364466;145;859170;-61
2021/08/30 03:09:21;;;;;;;12.87;8.12;;;;;;;;;;363320;146;858424;-61
2021/08/30 03:10:24;;;;;;;13.84;7.29;;;;;;;;;;361626;146;857295;-61
2021/08/30 03:11:26;;;;;;;13.74;8.06;;;;;;;;;;364435;145;861110;-61
2021/08/30 03:12:28;;;;;;;12.36;7.34;;;;;;;;;;365027;144;866623;-61
2021/08/30 03:13:30;;;;;;;12.07;7.61;;;;;;;;;;364235;145;857413;-61
2021/08/30 03:14:31;;;;;;;10.86;7.77;;;;;;;;;;362141;147;866721;-61
2021/08/30 03:15:33;;;;;;;10.84;7.29;;;;;;;;;;362681;144;856592;-59
2021/08/30 03:16:36;;;;;;;11.77;7.57;;;;;;;;;;364187;146;866441;-60
2021/08/30 03:17:38;;;;;;;11.53;8.09;;;;;;;;;;364865;146;857285;-60
2021/08/30 03:18:40;;;;;;;12.88;7.66;;;;;;;;;;361990;145;865606;-61
2021/08/30 03:19:43;;;;;;;10.08;7.03;;;;;;;;;;364304;145;864973;-61
2021/08/30 03:20:47;;;;;;;12.34;7.35;;;;;;;;;;359205;146;857310;-60
2021/08/30 03:21:49;;;;;;;12.50;7.34;;;;;;;;;;357684;147;857757;-59
2021/08/30 03:22:50;;;;;;;15.49;7.37;;;;;;;;;;356055;147;860122;-59
2021/08/30 03:23:52;;;;;;;12.06;7.26;;;;;;;;;;352229;148;858315;-62
2021/08/30 03:24:54;;;;;;;14.49;7.59;;;;;;;;;;355171;148;864953;-60
2021/08/30 03:25:55;;;;;;;9.56;7.14;;;;;;;;;;355412;148;857263;-58
2021/08/30 03:26:57;;;;;;;14.04;7.54;;;;;;;;;;352420;148;857282;-59
2021/08/30 03:28:19;;;;;;;10.19;7.59;;;;;;;;;;353539;148;857319;-60
2021/08/30 03:29:20;;;;;;;12.97;7.46;;;;;;;;;;344113;153;867676;-60
2021/08/30 03:30:22;;;;;;;13.07;7.59;;;;;;;;;;342704;155;859040;-59
2021/08/30 03:31:26;;;;;;;11.31;7.67;;;;;;;;;;338231;158;860384;-60
2021/08/30 03:32:27;;;;;;;11.46;7.45;;;;;;;;;;346420;150;857404;-60
2021/08/30 03:33:29;;;;;;;13.81;7.86;;;;;;;;;;352642;150;859178;-61
2021/08/30 03:34:32;;;;;;;10.86;7.50;;;;;;;;;;352869;150;858535;-60
2021/08/30 03:35:34;;;;;;;16.02;8.23;;;;;;;;;;354826;151;864956;-60
2021/08/30 03:36:39;;;;;;;12.17;7.73;;;;;;;;;;352716;147;865078;-62
2021/08/30 03:37:43;;;;;;;10.05;7.35;;;;;;;;;;354622;151;860472;-59
2021/08/30 03:38:45;;;;;;;14.94;7.74;;;;;;;;;;351049;150;866318;-59
2021/08/30 03:39:46;;;;;;;12.35;7.37;;;;;;;;;;349101;150;857263;-60
2021/08/30 03:40:50;;;;;;;10.05;7.27;;;;;;;;;;350117;151;864979;-60
2021/08/30 03:41:52;;;;;;;16.48;7.58;;;;;;;;;;348685;152;865026;-60
2021/08/30 03:42:53;;;;;;;13.51;7.45;;;;;;;;;;349943;150;864931;-59
2021/08/30 03:43:55;;;;;;;11.84;7.12;;;;;;;;;;347872;151;865908;-59
2021/08/30 03:44:57;;;;;;;12.05;7.71;;;;;;;;;;349618;153;858548;-62
2021/08/30 03:45:58;;;;;;;9.11;6.95;;;;;;;;;;348272;153;857405;-59
2021/08/30 03:47:00;;;;;;;12.36;7.38;;;;;;;;;;351066;150;858000;-61
2021/08/30 03:48:02;;;;;;;11.96;7.49;;;;;;;;;;349053;151;860570;-60
2021/08/30 03:49:04;;;;;;;8.79;7.21;;;;;;;;;;348893;153;867057;-59
2021/08/30 03:50:06;;;;;;;11.27;7.46;;;;;;;;;;349427;151;865755;-59
2021/08/30 03:51:07;;;;;;;13.11;7.13;;;;;;;;;;349473;151;859303;-60
2021/08/30 03:52:09;;;;;;;9.41;7.24;;;;;;;;;;349925;151;857381;-59
2021/08/30 03:53:11;;;;;;;14.29;8.22;;;;;;;;;;348664;151;857277;-58
2021/08/30 03:54:12;;;;;;;12.19;7.31;;;;;;;;;;349020;150;866686;-60
2021/08/30 03:55:14;;;;;;;12.37;7.51;;;;;;;;;;350045;151;857717;-59
2021/08/30 03:56:16;;;;;;;11.00;7.46;;;;;;;;;;351551;151;857200;-62
2021/08/30 03:57:18;;;;;;;13.35;6.99;;;;;;;;;;349042;150;857724;-58
2021/08/30 03:58:19;;;;;;;10.13;7.23;;;;;;;;;;349042;151;859022;-59
2021/08/30 03:59:21;;;;;;;12.54;6.90;;;;;;;;;;349778;151;864916;-63
2021/08/30 04:00:25;;;;;;;15.75;8.01;;;;;;;;;;350789;150;857364;-62
2021/08/30 04:01:27;;;;;;;10.10;7.29;;;;;;;;;;348712;150;864869;-63
2021/08/30 04:02:29;;;;;;;10.23;7.06;;;;;;;;;;352224;151;857431;-64
2021/08/30 04:03:32;;;;;;;12.59;7.40;;;;;;;;;;350201;153;866808;-61
2021/08/30 04:04:33;;;;;;;12.54;7.45;;;;;;;;;;350130;150;857398;-64
2021/08/30 04:05:35;;;;;;;12.03;7.58;;;;;;;;;;349991;151;857310;-62
2021/08/30 04:06:38;;;;;;;12.49;7.61;;;;;;;;;;350737;151;866709;-60
2021/08/30 04:07:40;;;;;;;11.45;7.94;;;;;;;;;;349277;151;857284;-60
2021/08/30 04:08:42;;;;;;;11.81;7.75;;;;;;;;;;350240;151;857283;-62
2021/08/30 04:09:44;;;;;;;10.74;7.61;;;;;;;;;;349896;153;865360;-62
2021/08/30 04:10:47;;;;;;;11.75;7.56;;;;;;;;;;348910;151;865213;-61
2021/08/30 04:11:49;;;;;;;10.92;7.80;;;;;;;;;;348557;150;857777;-62
2021/08/30 04:12:50;;;;;;;10.19;6.99;;;;;;;;;;349327;151;859829;-64
2021/08/30 04:13:52;;;;;;;9.94;7.20;;;;;;;;;;350286;153;857298;-62
2021/08/30 04:14:54;;;;;;;12.11;7.33;;;;;;;;;;349672;153;857309;-61
2021/08/30 04:15:56;;;;;;;10.42;7.62;;;;;;;;;;349141;150;857768;-61
2021/08/30 04:16:58;;;;;;;10.07;7.33;;;;;;;;;;351969;150;860982;-61
2021/08/30 04:17:59;;;;;;;11.96;7.15;;;;;;;;;;349707;152;859020;-63
2021/08/30 04:19:01;;;;;;;13.63;7.41;;;;;;;;;;349121;151;859868;-62
2021/08/30 04:20:02;;;;;;;15.01;7.42;;;;;;;;;;350551;151;859353;-61
2021/08/30 04:21:04;;;;;;;11.17;7.74;;;;;;;;;;350217;151;864868;-60
2021/08/30 04:22:06;;;;;;;11.07;7.59;;;;;;;;;;349024;150;864982;-59
2021/08/30 04:23:07;;;;;;;12.63;6.99;;;;;;;;;;349635;151;860456;-63
2021/08/30 04:24:09;;;;;;;12.11;7.28;;;;;;;;;;349342;152;858544;-60
2021/08/30 04:25:11;;;;;;;10.51;7.30;;;;;;;;;;350300;153;857305;-62
2021/08/30 04:26:14;;;;;;;14.78;7.96;;;;;;;;;;349270;150;865007;-60
2021/08/30 04:27:17;;;;;;;9.10;7.57;;;;;;;;;;341065;154;857341;-60
2021/08/30 04:28:19;;;;;;;12.68;6.99;;;;;;;;;;342526;154;857369;-61
2021/08/30 04:29:21;;;;;;;10.33;7.16;;;;;;;;;;349220;150;866085;-61
2021/08/30 04:30:23;;;;;;;10.77;7.79;;;;;;;;;;348030;151;859267;-61
2021/08/30 04:31:24;;;;;;;9.39;7.22;;;;;;;;;;351137;151;857202;-61
2021/08/30 04:32:31;;;;;;;14.76;7.96;;;;;;;;;;349345;151;866873;-60
2021/08/30 04:33:30;;;;;;;15.74;7.94;;;;;;;;;;347699;150;857831;-62
2021/08/30 04:34:32;;;;;;;10.18;7.69;;;;;;;;;;348945;152;865226;-62
2021/08/30 04:35:34;;;;;;;11.41;7.71;;;;;;;;;;349525;151;864050;-61
2021/08/30 04:36:37;;;;;;;13.37;7.75;;;;;;;;;;349914;151;857372;-60
2021/08/30 04:37:39;;;;;;;14.84;7.88;;;;;;;;;;351316;153;857169;-61
2021/08/30 04:38:40;;;;;;;9.37;7.36;;;;;;;;;;349607;153;858373;-61
2021/08/30 04:39:42;;;;;;;11.30;7.29;;;;;;;;;;350443;152;857257;-60
2021/08/30 04:40:45;;;;;;;9.96;7.16;;;;;;;;;;349297;151;858923;-59
2021/08/30 04:41:47;;;;;;;10.69;7.61;;;;;;;;;;348697;153;857200;-62
2021/08/30 04:42:48;;;;;;;9.60;7.08;;;;;;;;;;350775;150;859009;-59
2021/08/30 04:43:51;;;;;;;13.41;7.57;;;;;;;;;;347634;151;859895;-60
2021/08/30 04:44:52;;;;;;;14.91;7.53;;;;;;;;;;350726;151;858718;-61
2021/08/30 04:45:54;;;;;;;12.34;7.42;;;;;;;;;;349420;152;857301;-62
2021/08/30 04:46:56;;;;;;;12.21;7.24;;;;;;;;;;349633;150;857269;-61
2021/08/30 04:47:58;;;;;;;12.12;7.12;;;;;;;;;;350102;151;857313;-60
2021/08/30 04:48:59;;;;;;;9.14;6.71;;;;;;;;;;349690;152;858647;-61
2021/08/30 04:50:02;;;;;;;11.98;7.91;;;;;;;;;;347795;152;857517;-62
2021/08/30 04:51:03;;;;;;;14.67;7.57;;;;;;;;;;348431;152;857414;-61
2021/08/30 04:52:05;;;;;;;13.15;7.53;;;;;;;;;;347774;151;857302;-62
2021/08/30 04:53:07;;;;;;;13.65;7.58;;;;;;;;;;349376;151;857213;-60
2021/08/30 04:54:08;;;;;;;13.51;7.67;;;;;;;;;;350149;151;857407;-62
2021/08/30 04:55:11;;;;;;;12.59;8.33;;;;;;;;;;348627;151;858992;-61
2021/08/30 04:56:14;;;;;;;14.12;8.16;;;;;;;;;;349266;152;858515;-61
2021/08/30 04:57:15;;;;;;;13.87;7.94;;;;;;;;;;350507;150;857468;-62
2021/08/30 04:58:17;;;;;;;10.91;7.86;;;;;;;;;;349154;153;857282;-63
2021/08/30 04:59:19;;;;;;;12.11;7.96;;;;;;;;;;350951;151;858845;-62
2021/08/30 05:00:21;;;;;;;12.36;8.20;;;;;;;;;;349329;153;859020;-62
2021/08/30 05:01:24;;;;;;;12.89;7.82;;;;;;;;;;349556;151;858650;-63
2021/08/30 05:02:26;;;;;;;11.59;8.08;;;;;;;;;;349031;151;858993;-61
2021/08/30 05:03:28;;;;;;;11.94;7.41;;;;;;;;;;348685;151;857314;-62
2021/08/30 05:04:29;;;;;;;10.71;7.57;;;;;;;;;;349025;150;857533;-60
2021/08/30 05:05:31;;;;;;;13.86;7.86;;;;;;;;;;349061;150;858775;-62
2021/08/30 05:06:33;;;;;;;11.96;7.53;;;;;;;;;;349709;151;858733;-60
2021/08/30 05:07:35;;;;;;;15.04;7.56;;;;;;;;;;349508;152;860446;-60
2021/08/30 05:08:36;;;;;;;13.45;7.94;;;;;;;;;;350933;150;857517;-61
2021/08/30 05:09:38;;;;;;;10.57;8.21;;;;;;;;;;349742;150;857369;-60
2021/08/30 05:10:41;;;;;;;10.03;7.87;;;;;;;;;;350380;152;857246;-61
2021/08/30 05:11:43;;;;;;;10.79;8.11;;;;;;;;;;349133;150;857217;-61
2021/08/30 05:12:45;;;;;;;11.47;7.71;;;;;;;;;;349905;150;858978;-60
2021/08/30 05:13:46;;;;;;;13.11;7.49;;;;;;;;;;349607;151;866722;-62
2021/08/30 05:14:48;;;;;;;10.69;7.56;;;;;;;;;;348454;153;857566;-61
2021/08/30 05:15:50;;;;;;;11.41;7.78;;;;;;;;;;342932;153;857446;-61
2021/08/30 05:16:52;;;;;;;15.63;8.41;;;;;;;;;;343670;153;859142;-61
2021/08/30 05:17:53;;;;;;;16.80;7.74;;;;;;;;;;349857;150;857251;-63
2021/08/30 05:18:55;;;;;;;13.31;8.06;;;;;;;;;;350049;151;865079;-62
2021/08/30 05:19:57;;;;;;;14.83;7.91;;;;;;;;;;349741;150;857351;-62
2021/08/30 05:20:59;;;;;;;12.29;8.54;;;;;;;;;;349717;153;858204;-62
2021/08/30 05:22:01;;;;;;;10.70;7.76;;;;;;;;;;344614;153;857256;-62
2021/08/30 05:23:02;;;;;;;10.80;7.82;;;;;;;;;;351648;150;858994;-62
2021/08/30 05:24:07;;;;;;;12.68;8.06;;;;;;;;;;349401;151;864872;-62
2021/08/30 05:25:09;;;;;;;12.65;7.89;;;;;;;;;;349319;153;857626;-61
2021/08/30 05:26:11;;;;;;;12.21;8.00;;;;;;;;;;350350;150;857605;-62
2021/08/30 05:27:13;;;;;;;13.96;7.49;;;;;;;;;;349196;150;859629;-61
2021/08/30 05:28:14;;;;;;;9.29;7.69;;;;;;;;;;348727;151;857282;-62
2021/08/30 05:29:16;;;;;;;14.62;7.76;;;;;;;;;;354476;151;857143;-62
2021/08/30 05:30:19;;;;;;;14.81;8.87;;;;;;;;;;345908;153;866663;-62
2021/08/30 05:31:20;;;;;;;15.11;7.85;;;;;;;;;;344135;153;858764;-62
2021/08/30 05:32:22;;;;;;;14.90;8.18;;;;;;;;;;344300;154;857352;-61
2021/08/30 05:33:23;;;;;;;11.31;8.12;;;;;;;;;;342484;155;857199;-61
2021/08/30 05:34:25;;;;;;;19.00;8.41;;;;;;;;;;345892;152;857222;-61
2021/08/30 05:35:26;;;;;;;28.11;10.09;;;;;;;;;;345590;153;857415;-62
2021/08/30 05:36:29;;;;;;;22.31;8.63;;;;;;;;;;347607;154;859134;-62
2021/08/30 05:37:30;;;;;;;14.67;7.74;;;;;;;;;;346341;153;857326;-62
2021/08/30 05:38:32;;;;;;;14.02;7.80;;;;;;;;;;344790;153;858254;-62
2021/08/30 05:39:34;;;;;;;14.07;8.06;;;;;;;;;;345323;153;858282;-62
2021/08/30 05:40:35;;;;;;;13.65;7.92;;;;;;;;;;344418;153;864998;-62
2021/08/30 05:41:37;;;;;;;13.95;8.14;;;;;;;;;;345116;153;858762;-61
2021/08/30 05:42:39;;;;;;;14.09;7.97;;;;;;;;;;345222;154;857217;-61
2021/08/30 05:43:40;;;;;;;11.87;8.51;;;;;;;;;;344586;153;864999;-61
2021/08/30 05:44:42;;;;;;;19.61;7.69;;;;;;;;;;345318;153;857211;-63
2021/08/30 05:45:43;;;;;;;12.92;8.26;;;;;;;;;;344539;153;857186;-63
2021/08/30 05:46:45;;;;;;;11.28;7.94;;;;;;;;;;344823;154;857313;-61
2021/08/30 05:47:47;;;;;;;13.96;7.79;;;;;;;;;;345037;153;864909;-61
2021/08/30 05:48:49;;;;;;;13.63;9.11;;;;;;;;;;346565;153;866759;-64
2021/08/30 05:49:50;;;;;;;10.14;7.46;;;;;;;;;;346519;153;857289;-63
2021/08/30 05:50:53;;;;;;;16.61;8.28;;;;;;;;;;344741;153;857860;-63
2021/08/30 05:51:55;;;;;;;11.98;8.14;;;;;;;;;;345408;152;865454;-61
2021/08/30 05:52:56;;;;;;;11.35;7.85;;;;;;;;;;344390;153;857330;-61
2021/08/30 05:53:58;;;;;;;10.75;8.30;;;;;;;;;;343682;153;865426;-62
2021/08/30 05:55:00;;;;;;;13.82;7.85;;;;;;;;;;344592;153;865128;-62
2021/08/30 05:56:01;;;;;;;16.51;8.78;;;;;;;;;;345342;153;866666;-62
2021/08/30 05:57:03;;;;;;;14.11;8.11;;;;;;;;;;344919;154;857309;-62
2021/08/30 05:58:04;;;;;;;20.38;8.44;;;;;;;;;;345824;153;857321;-63
2021/08/30 05:59:06;;;;;;;11.41;7.96;;;;;;;;;;344962;153;865660;-62
2021/08/30 06:00:09;;;;;;;15.44;8.67;;;;;;;;;;348957;153;859215;-63
2021/08/30 06:01:10;;;;;;;13.29;8.55;;;;;;;;;;339460;153;858932;-62
2021/08/30 06:02:12;;;;;;;17.64;8.68;;;;;;;;;;343289;153;858137;-62
2021/08/30 06:03:13;;;;;;;12.62;8.26;;;;;;;;;;346409;153;858208;-62
2021/08/30 06:04:15;;;;;;;15.89;8.32;;;;;;;;;;346625;153;864866;-62
2021/08/30 06:05:17;;;;;;;12.39;8.52;;;;;;;;;;344967;151;857274;-62
2021/08/30 06:06:19;;;;;;;17.78;8.94;;;;;;;;;;344609;153;857318;-62
2021/08/30 06:07:21;;;;;;;15.54;8.46;;;;;;;;;;345129;153;864951;-62
2021/08/30 06:08:22;;;;;;;14.66;7.97;;;;;;;;;;344966;153;865965;-62